| time (UTC) | temp F | wind direction | speed MPH | gust MPH | rain 1hr in | rain 24hr in | rain mn in | humidity % | barometer mb |
| 20260504034533 | 53 | 5 | 3.0 | 5.0 | 0.00 | 0.07 | 0.07 | 1 | 1006.2 |
| 20260504033028 | 54 | 5 | 2.0 | 6.0 | 0.00 | 0.07 | 0.07 | 1 | 1006.1 |
| 20260504031528 | 55 | 5 | 1.0 | 4.0 | 0.00 | 0.07 | 0.07 | 1 | 1006.2 |
| 20260504030022 | 55 | 5 | 0.0 | 3.0 | 0.00 | 0.07 | 0.07 | 1 | 1006.1 |
| 20260504024515 | 56 | 5 | 0.0 | 5.0 | 0.00 | 0.07 | 0.07 | 1 | 1006.1 |
| 20260504023012 | 57 | 5 | 3.0 | 8.0 | 0.00 | 0.07 | 0.07 | 1 | 1006.0 |
| 20260504021510 | 57 | 5 | 2.0 | 6.0 | 0.00 | 0.07 | 0.07 | 1 | 1005.8 |
| 20260504020003 | 58 | 5 | 3.0 | 8.0 | 0.00 | 0.07 | 0.07 | 1 | 1005.5 |
| 20260504014607 | 59 | 5 | 2.0 | 8.0 | 0.00 | 0.07 | 0.07 | 1 | 1005.5 |
| 20260504013056 | 61 | 5 | 2.0 | 6.0 | 0.00 | 0.07 | 0.07 | 1 | 1005.4 |
| 20260504011550 | 62 | 5 | 2.0 | 10.0 | 0.00 | 0.07 | 0.07 | 1 | 1005.2 |
| 20260504010045 | 64 | 5 | 2.0 | 9.0 | 0.00 | 0.07 | 0.07 | 1 | 1005.1 |
| 20260504004541 | 66 | 5 | 6.0 | 14.0 | 0.00 | 0.07 | 0.07 | 1 | 1005.2 |
| 20260504003036 | 67 | 5 | 6.0 | 13.0 | 0.00 | 0.07 | 0.07 | 1 | 1005.1 |
| 20260504001532 | 69 | 5 | 4.0 | 15.0 | 0.00 | 0.07 | 0.07 | 1 | 1005.4 |
| 20260504000028 | 69 | 5 | 3.0 | 14.0 | 0.00 | 0.07 | 0.07 | 1 | 1005.4 |
| 20260503234526 | 69 | 5 | 4.0 | 12.0 | 0.00 | 0.07 | 0.07 | 1 | 1005.4 |
| 20260503233019 | 71 | 5 | 5.0 | 11.0 | 0.00 | 0.07 | 0.07 | 1 | 1005.2 |
| 20260503231520 | 72 | 5 | 3.0 | 14.0 | 0.00 | 0.07 | 0.07 | 1 | 1005.2 |
| 20260503230011 | 73 | 5 | 4.0 | 14.0 | 0.00 | 0.07 | 0.07 | 1 | 1005.4 |
| 20260503224506 | 72 | 5 | 5.0 | 14.0 | 0.00 | 0.07 | 0.07 | 1 | 1005.6 |
| 20260503223004 | 72 | 5 | 6.0 | 22.0 | 0.00 | 0.07 | 0.07 | 1 | 1005.7 |
| 20260503221602 | 72 | 5 | 13.0 | 24.0 | 0.00 | 0.07 | 0.07 | 1 | 1005.8 |
| 20260503220054 | 72 | 5 | 13.0 | 23.0 | 0.00 | 0.07 | 0.07 | 1 | 1005.8 |
| 20260503214559 | 72 | 5 | 6.0 | 17.0 | 0.00 | 0.07 | 0.07 | 1 | 1005.9 |
| 20260503213047 | 71 | 5 | 6.0 | 21.0 | 0.00 | 0.07 | 0.07 | 1 | 1005.9 |
| 20260503211547 | 71 | 5 | 10.0 | 22.0 | 0.00 | 0.07 | 0.07 | 1 | 1006.0 |
| 20260503210036 | 70 | 5 | 10.0 | 26.0 | 0.00 | 0.07 | 0.07 | 1 | 1006.2 |
| 20260503204533 | 70 | 5 | 11.0 | 22.0 | 0.00 | 0.07 | 0.07 | 1 | 1006.4 |
| 20260503203027 | 69 | 5 | 8.0 | 25.0 | 0.00 | 0.07 | 0.07 | 1 | 1006.8 |
| 20260503201523 | 68 | 5 | 16.0 | 29.0 | 0.00 | 0.07 | 0.07 | 1 | 1007.1 |
| 20260503200019 | 68 | 5 | 10.0 | 26.0 | 0.00 | 0.07 | 0.07 | 1 | 1007.3 |
| 20260503194514 | 67 | 5 | 9.0 | 24.0 | 0.00 | 0.07 | 0.07 | 1 | 1007.6 |
| 20260503193010 | 68 | 5 | 5.0 | 21.0 | 0.00 | 0.07 | 0.07 | 1 | 1008.0 |
| 20260503191506 | 68 | 5 | 10.0 | 25.0 | 0.00 | 0.07 | 0.07 | 1 | 1008.2 |
| 20260503190004 | 67 | 5 | 8.0 | 24.0 | 0.00 | 0.07 | 0.07 | 1 | 1008.5 |
| 20260503184602 | 66 | 5 | 9.0 | 23.0 | 0.00 | 0.07 | 0.07 | 1 | 1008.6 |
| 20260503183101 | 65 | 5 | 9.0 | 23.0 | 0.00 | 0.07 | 0.07 | 1 | 1009.0 |
| 20260503181549 | 65 | 5 | 11.0 | 26.0 | 0.00 | 0.07 | 0.07 | 1 | 1009.3 |
| 20260503180053 | 64 | 5 | 12.0 | 28.0 | 0.00 | 0.07 | 0.07 | 1 | 1009.3 |
| 20260503174540 | 64 | 5 | 12.0 | 27.0 | 0.00 | 0.07 | 0.07 | 1 | 1009.4 |
| 20260503173048 | 62 | 5 | 17.0 | 35.0 | 0.00 | 0.07 | 0.07 | 1 | 1009.3 |
| 20260503171539 | 60 | 5 | 14.0 | 34.0 | 0.00 | 0.07 | 0.07 | 1 | 1009.5 |
| 20260503150106 | 46 | 5 | 10.0 | 15.0 | 0.00 | 0.07 | 0.07 | 1 | 1012.4 |
| 20260503081601 | 42 | 5 | 3.0 | 8.0 | 0.00 | 0.00 | 0.00 | 1 | 1014.8 |
| 20260503071546 | 43 | 5 | 3.0 | 9.0 | 0.00 | 0.00 | 0.00 | 1 | 1015.0 |
| 20260503054511 | 45 | 5 | 3.0 | 11.0 | 0.00 | 0.00 | 0.00 | 1 | 1015.7 |
| 20260503053009 | 44 | 5 | 2.0 | 9.0 | 0.00 | 0.00 | 0.00 | 1 | 1015.8 |
| 20260503051502 | 44 | 5 | 2.0 | 9.0 | 0.00 | 0.00 | 0.00 | 1 | 1015.8 |
| 20260503050058 | 44 | 5 | 3.0 | 6.0 | 0.00 | 0.00 | 0.00 | 1 | 1016.0 |
| 20260503044555 | 44 | 5 | 2.0 | 5.0 | 0.00 | 0.00 | 0.00 | 1 | 1016.0 |
| 20260503043053 | 44 | 5 | 3.0 | 6.0 | 0.00 | 0.00 | 0.00 | 1 | 1016.1 |
| 20260503041545 | 43 | 5 | 2.0 | 5.0 | 0.00 | 0.00 | 0.00 | 1 | 1016.3 |
| 20260503040041 | 42 | 5 | 1.0 | 6.0 | 0.00 | 0.00 | 0.00 | 1 | 1016.5 |